EZY74Z EGKK-LEBL
Flight info
| Callsign | EZY74Z |
|---|---|
| Flight time | N/A |
| Altitude | 35000 |
| Route | SFD4Z SFD Y47 BENBO UY47 DRAKE L151 SITET UN859 SOPIL/N0450F370 DCT BALAN DCT EVPOK DCT NARAK DCT GAI DCT LOMRA DCT ROCAN DCT PUMAL PUMAL2W |
| Aircraft | A20N/M-SDE2E3FGHIRWXY/LB1 |
Departure
| Time | N/A |
|---|---|
| Airport | London Gatwick Airport (EGKK) |
Arrival
| Time | 2026-05-06 18:52 |
|---|---|
| Airport | Josep Tarradellas Barcelona-El Prat Airport (LEBL) |
| Time | Latitude | Longitude | Altitude | Speed | Heading |
|---|---|---|---|---|---|
| 2026-05-06 18:20 | 44.09964 | 1.79219 | 34954 ft | 452 kts | 174° |
| 2026-05-06 18:20 | 44.03754 | 1.80587 | 34956 ft | 451 kts | 174° |
| 2026-05-06 18:21 | 43.97508 | 1.81959 | 34963 ft | 451 kts | 174° |
| 2026-05-06 18:21 | 43.91296 | 1.82840 | 34967 ft | 448 kts | 180° |
| 2026-05-06 18:22 | 43.85076 | 1.83431 | 34966 ft | 448 kts | 180° |
| 2026-05-06 18:22 | 43.78869 | 1.84031 | 34972 ft | 447 kts | 180° |
| 2026-05-06 18:23 | 43.72661 | 1.84632 | 34979 ft | 447 kts | 180° |
| 2026-05-06 18:23 | 43.66459 | 1.85232 | 34988 ft | 447 kts | 180° |
| 2026-05-06 18:24 | 43.60218 | 1.85835 | 34979 ft | 446 kts | 180° |
| 2026-05-06 18:24 | 43.57123 | 1.86133 | 34799 ft | 446 kts | 180° |
| 2026-05-06 18:24 | 43.54033 | 1.86431 | 34556 ft | 445 kts | 180° |
| 2026-05-06 18:25 | 43.50941 | 1.86728 | 34318 ft | 444 kts | 180° |
| 2026-05-06 18:25 | 43.47858 | 1.87024 | 34082 ft | 445 kts | 180° |
| 2026-05-06 18:25 | 43.44772 | 1.87320 | 33825 ft | 445 kts | 180° |
| 2026-05-06 18:25 | 43.41684 | 1.87615 | 33545 ft | 445 kts | 180° |
| 2026-05-06 18:26 | 43.38596 | 1.87910 | 33267 ft | 445 kts | 180° |
| 2026-05-06 18:26 | 43.35509 | 1.88206 | 32987 ft | 446 kts | 180° |
| 2026-05-06 18:26 | 43.32416 | 1.88501 | 32718 ft | 446 kts | 181° |
| 2026-05-06 18:26 | 43.30366 | 1.88698 | 32544 ft | 446 kts | 181° |
| 2026-05-06 18:27 | 43.27228 | 1.88998 | 32277 ft | 446 kts | 181° |
| 2026-05-06 18:27 | 43.24125 | 1.89295 | 32015 ft | 447 kts | 180° |
| 2026-05-06 18:27 | 43.21035 | 1.89590 | 31759 ft | 447 kts | 180° |
| 2026-05-06 18:27 | 43.17885 | 1.89891 | 31499 ft | 448 kts | 180° |
| 2026-05-06 18:28 | 43.14770 | 1.90187 | 31244 ft | 448 kts | 180° |
| 2026-05-06 18:28 | 43.11660 | 1.90484 | 30997 ft | 449 kts | 180° |
| 2026-05-06 18:28 | 43.08504 | 1.90783 | 30748 ft | 449 kts | 180° |
| 2026-05-06 18:28 | 43.05383 | 1.91080 | 30506 ft | 448 kts | 180° |
| 2026-05-06 18:29 | 43.02279 | 1.91375 | 30260 ft | 446 kts | 180° |
| 2026-05-06 18:29 | 42.99186 | 1.91669 | 30009 ft | 444 kts | 180° |
| 2026-05-06 18:29 | 42.96109 | 1.91961 | 29719 ft | 442 kts | 181° |
| 2026-05-06 18:29 | 42.93047 | 1.92252 | 29426 ft | 440 kts | 181° |
| 2026-05-06 18:30 | 42.90004 | 1.92541 | 29134 ft | 437 kts | 181° |
| 2026-05-06 18:30 | 42.86976 | 1.92827 | 28856 ft | 435 kts | 181° |
| 2026-05-06 18:30 | 42.83964 | 1.93111 | 28567 ft | 433 kts | 181° |
| 2026-05-06 18:30 | 42.80966 | 1.93392 | 28288 ft | 431 kts | 181° |
| 2026-05-06 18:31 | 42.77987 | 1.93671 | 28016 ft | 429 kts | 181° |
| 2026-05-06 18:31 | 42.75010 | 1.93952 | 27738 ft | 427 kts | 181° |
| 2026-05-06 18:31 | 42.72049 | 1.94230 | 27471 ft | 426 kts | 181° |
| 2026-05-06 18:31 | 42.69099 | 1.94506 | 27197 ft | 424 kts | 181° |
| 2026-05-06 18:32 | 42.66161 | 1.94889 | 26935 ft | 425 kts | 176° |
| 2026-05-06 18:32 | 42.63240 | 1.95485 | 26670 ft | 423 kts | 176° |
| 2026-05-06 18:32 | 42.60329 | 1.96080 | 26415 ft | 422 kts | 176° |
| 2026-05-06 18:32 | 42.57420 | 1.96670 | 26147 ft | 421 kts | 175° |
| 2026-05-06 18:33 | 42.54528 | 1.97254 | 25896 ft | 419 kts | 175° |
| 2026-05-06 18:33 | 42.51643 | 1.97834 | 25414 ft | 420 kts | 175° |
| 2026-05-06 18:33 | 42.48745 | 1.98415 | 24844 ft | 419 kts | 175° |
| 2026-05-06 18:33 | 42.45872 | 1.98991 | 24278 ft | 416 kts | 174° |
| 2026-05-06 18:34 | 42.43014 | 1.99563 | 23680 ft | 414 kts | 174° |
| 2026-05-06 18:34 | 42.40172 | 2.00134 | 23091 ft | 410 kts | 173° |
| 2026-05-06 18:34 | 42.37426 | 2.01030 | 22763 ft | 403 kts | 164° |
| 2026-05-06 18:34 | 42.34861 | 2.02494 | 22324 ft | 398 kts | 154° |
| 2026-05-06 18:35 | 42.32511 | 2.04439 | 21816 ft | 395 kts | 149° |
| 2026-05-06 18:35 | 42.30215 | 2.06459 | 21284 ft | 392 kts | 149° |
| 2026-05-06 18:35 | 42.27941 | 2.08449 | 20759 ft | 388 kts | 149° |
| 2026-05-06 18:35 | 42.25675 | 2.10424 | 20233 ft | 385 kts | 149° |
| 2026-05-06 18:36 | 42.23431 | 2.12375 | 19714 ft | 383 kts | 149° |
| 2026-05-06 18:36 | 42.21206 | 2.14308 | 19195 ft | 380 kts | 149° |
| 2026-05-06 18:36 | 42.18979 | 2.16240 | 18673 ft | 378 kts | 149° |
| 2026-05-06 18:36 | 42.16770 | 2.18155 | 18148 ft | 377 kts | 149° |
| 2026-05-06 18:37 | 42.14573 | 2.20059 | 17603 ft | 373 kts | 149° |
| 2026-05-06 18:37 | 42.12397 | 2.21944 | 17097 ft | 370 kts | 149° |
| 2026-05-06 18:37 | 42.10235 | 2.23814 | 16593 ft | 367 kts | 149° |
| 2026-05-06 18:37 | 42.08095 | 2.25663 | 16086 ft | 364 kts | 149° |
| 2026-05-06 18:38 | 42.05971 | 2.27498 | 15597 ft | 361 kts | 149° |
| 2026-05-06 18:38 | 42.03862 | 2.29318 | 15110 ft | 359 kts | 149° |
| 2026-05-06 18:38 | 42.01736 | 2.31152 | 14618 ft | 357 kts | 149° |
| 2026-05-06 18:38 | 42.01031 | 2.31760 | 14464 ft | 356 kts | 149° |
| 2026-05-06 18:39 | 41.97581 | 2.34733 | 13634 ft | 353 kts | 149° |
| 2026-05-06 18:39 | 41.95522 | 2.36504 | 13144 ft | 350 kts | 149° |
| 2026-05-06 18:39 | 41.93179 | 2.38516 | 12595 ft | 346 kts | 149° |
| 2026-05-06 18:40 | 41.89807 | 2.41411 | 11812 ft | 341 kts | 149° |
| 2026-05-06 18:40 | 41.87814 | 2.43118 | 11364 ft | 338 kts | 149° |
| 2026-05-06 18:40 | 41.85837 | 2.44812 | 10925 ft | 336 kts | 149° |
| 2026-05-06 18:40 | 41.83875 | 2.46492 | 10486 ft | 334 kts | 149° |
| 2026-05-06 18:41 | 41.81930 | 2.48157 | 10183 ft | 327 kts | 149° |
| 2026-05-06 18:41 | 41.80052 | 2.49764 | 10063 ft | 314 kts | 149° |
| 2026-05-06 18:41 | 41.78221 | 2.51332 | 9901 ft | 304 kts | 149° |
| 2026-05-06 18:41 | 41.76361 | 2.52624 | 9497 ft | 298 kts | 166° |
| 2026-05-06 18:42 | 41.74339 | 2.52869 | 9096 ft | 290 kts | 190° |
| 2026-05-06 18:42 | 41.72449 | 2.52069 | 8743 ft | 283 kts | 205° |
| 2026-05-06 18:42 | 41.70650 | 2.51038 | 8388 ft | 280 kts | 206° |
| 2026-05-06 18:42 | 41.68870 | 2.50013 | 8070 ft | 276 kts | 206° |
| 2026-05-06 18:43 | 41.67110 | 2.49002 | 7982 ft | 277 kts | 206° |
| 2026-05-06 18:43 | 41.65360 | 2.47999 | 7839 ft | 277 kts | 206° |
| 2026-05-06 18:43 | 41.63579 | 2.46980 | 7530 ft | 276 kts | 205° |
| 2026-05-06 18:43 | 41.61812 | 2.45970 | 7164 ft | 276 kts | 205° |
| 2026-05-06 18:44 | 41.60052 | 2.44966 | 6779 ft | 274 kts | 206° |
| 2026-05-06 18:44 | 41.58302 | 2.43970 | 6411 ft | 273 kts | 205° |
| 2026-05-06 18:44 | 41.56552 | 2.42975 | 6017 ft | 272 kts | 205° |
| 2026-05-06 18:44 | 41.54827 | 2.41991 | 5661 ft | 269 kts | 205° |
| 2026-05-06 18:45 | 41.53115 | 2.41017 | 5152 ft | 267 kts | 205° |
| 2026-05-06 18:45 | 41.51426 | 2.40057 | 4814 ft | 257 kts | 205° |
| 2026-05-06 18:45 | 41.49839 | 2.39158 | 4660 ft | 240 kts | 205° |
| 2026-05-06 18:45 | 41.48346 | 2.38314 | 4463 ft | 227 kts | 205° |
| 2026-05-06 18:46 | 41.46885 | 2.37484 | 4083 ft | 224 kts | 205° |
| 2026-05-06 18:46 | 41.45478 | 2.36682 | 3689 ft | 222 kts | 205° |
| 2026-05-06 18:46 | 41.44044 | 2.35865 | 3288 ft | 220 kts | 204° |
| 2026-05-06 18:46 | 41.42658 | 2.35078 | 2980 ft | 215 kts | 204° |
| 2026-05-06 18:47 | 41.41263 | 2.34288 | 3006 ft | 219 kts | 204° |
| 2026-05-06 18:47 | 41.39871 | 2.33498 | 3003 ft | 215 kts | 205° |
| 2026-05-06 18:47 | 41.38617 | 2.32430 | 3008 ft | 216 kts | 224° |
| 2026-05-06 18:47 | 41.37696 | 2.30863 | 3007 ft | 216 kts | 239° |
| 2026-05-06 18:48 | 41.36993 | 2.29091 | 2987 ft | 216 kts | 244° |
| 2026-05-06 18:48 | 41.36370 | 2.27302 | 2773 ft | 212 kts | 245° |
| 2026-05-06 18:48 | 41.35749 | 2.25494 | 2466 ft | 211 kts | 244° |
| 2026-05-06 18:48 | 41.35150 | 2.23743 | 2176 ft | 205 kts | 244° |
| 2026-05-06 18:49 | 41.34573 | 2.22057 | 1949 ft | 192 kts | 244° |
| 2026-05-06 18:49 | 41.34050 | 2.20524 | 1672 ft | 173 kts | 243° |
| 2026-05-06 18:49 | 41.33573 | 2.19132 | 1446 ft | 158 kts | 243° |
| 2026-05-06 18:49 | 41.33141 | 2.17868 | 1244 ft | 143 kts | 243° |
| 2026-05-06 18:50 | 41.32739 | 2.16695 | 1047 ft | 134 kts | 244° |
| 2026-05-06 18:50 | 41.32352 | 2.15569 | 868 ft | 136 kts | 244° |
| 2026-05-06 18:50 | 41.31962 | 2.14428 | 681 ft | 136 kts | 244° |
| 2026-05-06 18:50 | 41.31568 | 2.13277 | 504 ft | 135 kts | 243° |
| 2026-05-06 18:51 | 41.31182 | 2.12148 | 325 ft | 133 kts | 243° |
| 2026-05-06 18:51 | 41.30793 | 2.11021 | 150 ft | 133 kts | 243° |
| 2026-05-06 18:51 | 41.30420 | 2.09898 | 26 ft | 133 kts | 242° |
| 2026-05-06 18:51 | 41.30066 | 2.08898 | 4 ft | 83 kts | 244° |
| 2026-05-06 18:52 | 41.29944 | 2.08517 | 6 ft | 39 kts | 253° |
| 2026-05-06 18:52 | 41.29934 | 2.08204 | 4 ft | 28 kts | 275° |
| 2026-05-06 18:52 | 41.29959 | 2.08051 | 3 ft | 0 kts | 314° |
| 2026-05-06 18:52 | 41.29958 | 2.08051 | 3 ft | 0 kts | 314° |
| 2026-05-06 18:53 | 41.29979 | 2.08034 | 3 ft | 8 kts | 336° |
| 2026-05-06 18:53 | 41.30057 | 2.07984 | 4 ft | 15 kts | 334° |
| 2026-05-06 18:53 | 41.30131 | 2.07911 | 2 ft | 13 kts | 321° |
| 2026-05-06 18:54 | 41.30204 | 2.07906 | 2 ft | 2 kts | 25° |
| 2026-05-06 18:54 | 41.30225 | 2.07921 | 2 ft | 5 kts | 24° |
| 2026-05-06 18:54 | 41.30235 | 2.07928 | 2 ft | 0 kts | 24° |